sensor_id;sensor_type;location;lat;lon;timestamp;P1;durP1;ratioP1;P2;durP2;ratioP2
72127;SDS011;60000;51.030;7.024;2022-12-13T00:00:41;16.53;;;6.33;;
72127;SDS011;60000;51.030;7.024;2022-12-13T00:03:06;17.60;;;7.07;;
72127;SDS011;60000;51.030;7.024;2022-12-13T00:05:32;16.67;;;5.95;;
72127;SDS011;60000;51.030;7.024;2022-12-13T00:07:58;17.80;;;7.13;;
72127;SDS011;60000;51.030;7.024;2022-12-13T00:10:24;14.93;;;5.90;;
72127;SDS011;60000;51.030;7.024;2022-12-13T00:12:50;16.55;;;5.55;;
72127;SDS011;60000;51.030;7.024;2022-12-13T00:15:15;16.73;;;5.67;;
72127;SDS011;60000;51.030;7.024;2022-12-13T00:17:40;15.47;;;5.83;;
72127;SDS011;60000;51.030;7.024;2022-12-13T00:20:06;13.13;;;5.67;;
72127;SDS011;60000;51.030;7.024;2022-12-13T00:22:31;14.63;;;5.50;;
72127;SDS011;60000;51.030;7.024;2022-12-13T00:24:57;12.67;;;5.00;;
72127;SDS011;60000;51.030;7.024;2022-12-13T00:27:22;12.82;;;4.90;;
72127;SDS011;60000;51.030;7.024;2022-12-13T00:29:47;11.85;;;5.25;;
72127;SDS011;60000;51.030;7.024;2022-12-13T00:32:13;12.83;;;5.07;;
72127;SDS011;60000;51.030;7.024;2022-12-13T00:34:38;12.43;;;4.63;;
72127;SDS011;60000;51.030;7.024;2022-12-13T00:37:04;11.67;;;4.83;;
72127;SDS011;60000;51.030;7.024;2022-12-13T00:39:29;16.67;;;6.10;;
72127;SDS011;60000;51.030;7.024;2022-12-13T00:41:55;17.08;;;6.40;;
72127;SDS011;60000;51.030;7.024;2022-12-13T00:44:20;14.07;;;6.50;;
72127;SDS011;60000;51.030;7.024;2022-12-13T00:46:46;14.17;;;5.50;;
72127;SDS011;60000;51.030;7.024;2022-12-13T00:49:11;15.97;;;5.60;;
72127;SDS011;60000;51.030;7.024;2022-12-13T00:51:37;14.43;;;5.28;;
72127;SDS011;60000;51.030;7.024;2022-12-13T00:54:03;13.52;;;5.35;;
72127;SDS011;60000;51.030;7.024;2022-12-13T00:56:29;12.53;;;4.63;;
72127;SDS011;60000;51.030;7.024;2022-12-13T00:58:56;13.60;;;5.10;;
72127;SDS011;60000;51.030;7.024;2022-12-13T01:01:23;12.68;;;5.07;;
72127;SDS011;60000;51.030;7.024;2022-12-13T01:03:51;14.85;;;5.40;;
72127;SDS011;60000;51.030;7.024;2022-12-13T01:06:19;10.80;;;4.47;;
72127;SDS011;60000;51.030;7.024;2022-12-13T01:08:51;14.27;;;5.47;;
72127;SDS011;60000;51.030;7.024;2022-12-13T01:11:17;13.27;;;5.30;;
72127;SDS011;60000;51.030;7.024;2022-12-13T01:13:42;11.17;;;4.83;;
72127;SDS011;60000;51.030;7.024;2022-12-13T01:16:09;13.13;;;4.90;;
72127;SDS011;60000;51.030;7.024;2022-12-13T01:18:35;12.23;;;5.45;;
72127;SDS011;60000;51.030;7.024;2022-12-13T01:21:03;12.50;;;5.07;;
72127;SDS011;60000;51.030;7.024;2022-12-13T01:23:30;11.90;;;4.70;;
72127;SDS011;60000;51.030;7.024;2022-12-13T01:25:55;13.95;;;5.38;;
72127;SDS011;60000;51.030;7.024;2022-12-13T01:28:21;13.80;;;5.07;;
72127;SDS011;60000;51.030;7.024;2022-12-13T01:30:54;11.93;;;4.97;;
72127;SDS011;60000;51.030;7.024;2022-12-13T01:33:28;9.93;;;4.23;;
72127;SDS011;60000;51.030;7.024;2022-12-13T01:35:54;14.75;;;5.50;;
72127;SDS011;60000;51.030;7.024;2022-12-13T01:38:20;16.25;;;5.78;;
72127;SDS011;60000;51.030;7.024;2022-12-13T01:40:46;15.48;;;5.90;;
72127;SDS011;60000;51.030;7.024;2022-12-13T01:43:22;16.73;;;5.73;;
72127;SDS011;60000;51.030;7.024;2022-12-13T01:45:48;12.40;;;5.38;;
72127;SDS011;60000;51.030;7.024;2022-12-13T01:48:15;14.43;;;5.23;;
72127;SDS011;60000;51.030;7.024;2022-12-13T01:50:46;14.35;;;5.15;;
72127;SDS011;60000;51.030;7.024;2022-12-13T01:53:16;13.45;;;5.30;;
72127;SDS011;60000;51.030;7.024;2022-12-13T01:55:45;13.20;;;5.38;;
72127;SDS011;60000;51.030;7.024;2022-12-13T01:58:12;10.73;;;4.93;;
72127;SDS011;60000;51.030;7.024;2022-12-13T02:00:39;13.65;;;5.18;;
72127;SDS011;60000;51.030;7.024;2022-12-13T02:03:05;13.65;;;4.93;;
72127;SDS011;60000;51.030;7.024;2022-12-13T02:05:35;11.93;;;4.57;;
72127;SDS011;60000;51.030;7.024;2022-12-13T02:08:04;11.52;;;4.20;;
72127;SDS011;60000;51.030;7.024;2022-12-13T02:10:31;12.20;;;4.65;;
72127;SDS011;60000;51.030;7.024;2022-12-13T02:12:57;11.43;;;4.20;;
72127;SDS011;60000;51.030;7.024;2022-12-13T02:15:23;12.35;;;5.10;;
72127;SDS011;60000;51.030;7.024;2022-12-13T02:26:22;10.13;;;3.85;;
72127;SDS011;60000;51.030;7.024;2022-12-13T02:31:45;11.73;;;4.22;;
72127;SDS011;60000;51.030;7.024;2022-12-13T02:34:21;11.60;;;4.28;;
72127;SDS011;60000;51.030;7.024;2022-12-13T02:39:27;13.07;;;4.38;;
72127;SDS011;60000;51.030;7.024;2022-12-13T02:42:09;13.00;;;4.20;;
72127;SDS011;60000;51.030;7.024;2022-12-13T02:44:42;11.45;;;3.85;;
72127;SDS011;60000;51.030;7.024;2022-12-13T02:47:21;9.77;;;3.30;;
72127;SDS011;60000;51.030;7.024;2022-12-13T02:49:50;8.87;;;3.27;;
72127;SDS011;60000;51.030;7.024;2022-12-13T02:52:20;9.40;;;3.33;;
72127;SDS011;60000;51.030;7.024;2022-12-13T02:54:48;10.27;;;3.95;;
72127;SDS011;60000;51.030;7.024;2022-12-13T02:57:27;9.93;;;4.17;;
72127;SDS011;60000;51.030;7.024;2022-12-13T03:00:05;13.43;;;4.25;;
72127;SDS011;60000;51.030;7.024;2022-12-13T03:08:38;11.50;;;3.75;;
72127;SDS011;60000;51.030;7.024;2022-12-13T03:11:31;10.40;;;3.58;;
72127;SDS011;60000;51.030;7.024;2022-12-13T03:14:38;9.40;;;3.85;;
72127;SDS011;60000;51.030;7.024;2022-12-13T03:17:10;12.75;;;4.53;;
72127;SDS011;60000;51.030;7.024;2022-12-13T03:19:37;17.43;;;4.03;;
72127;SDS011;60000;51.030;7.024;2022-12-13T03:22:04;13.57;;;4.37;;
72127;SDS011;60000;51.030;7.024;2022-12-13T03:24:30;12.45;;;4.30;;
72127;SDS011;60000;51.030;7.024;2022-12-13T03:26:55;14.03;;;4.83;;
72127;SDS011;60000;51.030;7.024;2022-12-13T03:29:21;13.77;;;4.80;;
72127;SDS011;60000;51.030;7.024;2022-12-13T03:31:46;10.70;;;3.90;;
72127;SDS011;60000;51.030;7.024;2022-12-13T03:34:12;12.20;;;4.33;;
72127;SDS011;60000;51.030;7.024;2022-12-13T03:36:37;12.67;;;4.73;;
72127;SDS011;60000;51.030;7.024;2022-12-13T03:39:02;11.73;;;4.40;;
72127;SDS011;60000;51.030;7.024;2022-12-13T03:41:28;9.60;;;3.63;;
72127;SDS011;60000;51.030;7.024;2022-12-13T03:43:59;12.88;;;4.10;;
72127;SDS011;60000;51.030;7.024;2022-12-13T03:46:28;15.17;;;4.77;;
72127;SDS011;60000;51.030;7.024;2022-12-13T03:48:53;13.52;;;4.70;;
72127;SDS011;60000;51.030;7.024;2022-12-13T03:51:18;11.20;;;4.45;;
72127;SDS011;60000;51.030;7.024;2022-12-13T03:53:44;14.27;;;4.83;;
72127;SDS011;60000;51.030;7.024;2022-12-13T03:56:09;11.57;;;4.37;;
72127;SDS011;60000;51.030;7.024;2022-12-13T03:58:34;11.67;;;4.27;;
72127;SDS011;60000;51.030;7.024;2022-12-13T04:01:00;12.03;;;4.20;;
72127;SDS011;60000;51.030;7.024;2022-12-13T04:03:25;9.27;;;4.17;;
72127;SDS011;60000;51.030;7.024;2022-12-13T04:05:50;11.13;;;4.03;;
72127;SDS011;60000;51.030;7.024;2022-12-13T04:08:16;12.53;;;3.40;;
72127;SDS011;60000;51.030;7.024;2022-12-13T04:10:41;11.60;;;4.43;;
72127;SDS011;60000;51.030;7.024;2022-12-13T04:13:06;11.90;;;4.40;;
72127;SDS011;60000;51.030;7.024;2022-12-13T04:15:52;10.43;;;3.83;;
72127;SDS011;60000;51.030;7.024;2022-12-13T04:18:17;12.97;;;4.53;;
72127;SDS011;60000;51.030;7.024;2022-12-13T04:20:43;14.15;;;4.95;;
72127;SDS011;60000;51.030;7.024;2022-12-13T04:23:09;16.20;;;5.67;;
72127;SDS011;60000;51.030;7.024;2022-12-13T04:25:35;25.13;;;8.15;;
72127;SDS011;60000;51.030;7.024;2022-12-13T04:28:00;22.77;;;8.13;;
72127;SDS011;60000;51.030;7.024;2022-12-13T04:30:26;19.30;;;6.60;;
72127;SDS011;60000;51.030;7.024;2022-12-13T04:32:51;22.80;;;7.53;;
72127;SDS011;60000;51.030;7.024;2022-12-13T04:35:17;18.77;;;6.43;;
72127;SDS011;60000;51.030;7.024;2022-12-13T04:37:43;18.00;;;6.87;;
72127;SDS011;60000;51.030;7.024;2022-12-13T04:40:08;21.77;;;6.87;;
72127;SDS011;60000;51.030;7.024;2022-12-13T04:42:34;21.05;;;7.15;;
72127;SDS011;60000;51.030;7.024;2022-12-13T04:44:59;18.67;;;6.03;;
72127;SDS011;60000;51.030;7.024;2022-12-13T04:47:25;16.63;;;6.13;;
72127;SDS011;60000;51.030;7.024;2022-12-13T04:49:50;17.27;;;6.30;;
72127;SDS011;60000;51.030;7.024;2022-12-13T04:52:15;19.50;;;6.80;;
72127;SDS011;60000;51.030;7.024;2022-12-13T04:54:41;19.38;;;6.63;;
72127;SDS011;60000;51.030;7.024;2022-12-13T04:57:06;23.03;;;7.57;;
72127;SDS011;60000;51.030;7.024;2022-12-13T04:59:35;20.10;;;7.43;;
72127;SDS011;60000;51.030;7.024;2022-12-13T05:02:00;19.77;;;7.18;;
72127;SDS011;60000;51.030;7.024;2022-12-13T05:04:26;19.17;;;6.83;;
72127;SDS011;60000;51.030;7.024;2022-12-13T05:06:51;18.37;;;6.97;;
72127;SDS011;60000;51.030;7.024;2022-12-13T05:09:17;16.00;;;6.37;;
72127;SDS011;60000;51.030;7.024;2022-12-13T05:11:42;15.27;;;6.43;;
72127;SDS011;60000;51.030;7.024;2022-12-13T05:14:07;18.27;;;6.27;;
72127;SDS011;60000;51.030;7.024;2022-12-13T05:16:33;14.88;;;5.47;;
72127;SDS011;60000;51.030;7.024;2022-12-13T05:18:58;18.73;;;6.47;;
72127;SDS011;60000;51.030;7.024;2022-12-13T05:21:23;16.33;;;6.33;;
72127;SDS011;60000;51.030;7.024;2022-12-13T05:23:49;19.87;;;7.13;;
72127;SDS011;60000;51.030;7.024;2022-12-13T05:26:14;17.37;;;6.40;;
72127;SDS011;60000;51.030;7.024;2022-12-13T05:28:39;17.10;;;6.47;;
72127;SDS011;60000;51.030;7.024;2022-12-13T05:31:08;18.30;;;6.47;;
72127;SDS011;60000;51.030;7.024;2022-12-13T05:33:35;17.45;;;6.30;;
72127;SDS011;60000;51.030;7.024;2022-12-13T05:36:00;13.90;;;5.20;;
72127;SDS011;60000;51.030;7.024;2022-12-13T05:38:26;17.60;;;5.87;;
72127;SDS011;60000;51.030;7.024;2022-12-13T05:40:51;12.15;;;4.93;;
72127;SDS011;60000;51.030;7.024;2022-12-13T05:43:17;13.63;;;5.20;;
72127;SDS011;60000;51.030;7.024;2022-12-13T05:45:42;13.70;;;5.33;;
72127;SDS011;60000;51.030;7.024;2022-12-13T05:48:07;13.37;;;5.33;;
72127;SDS011;60000;51.030;7.024;2022-12-13T05:50:34;13.60;;;4.78;;
72127;SDS011;60000;51.030;7.024;2022-12-13T05:52:59;15.13;;;5.87;;
72127;SDS011;60000;51.030;7.024;2022-12-13T05:55:25;16.73;;;6.33;;
72127;SDS011;60000;51.030;7.024;2022-12-13T05:57:50;14.67;;;4.87;;
72127;SDS011;60000;51.030;7.024;2022-12-13T06:00:15;16.03;;;5.30;;
72127;SDS011;60000;51.030;7.024;2022-12-13T06:02:42;16.75;;;5.82;;
72127;SDS011;60000;51.030;7.024;2022-12-13T06:05:09;19.63;;;7.05;;
72127;SDS011;60000;51.030;7.024;2022-12-13T06:07:35;22.15;;;7.75;;
72127;SDS011;60000;51.030;7.024;2022-12-13T06:10:01;20.77;;;7.17;;
72127;SDS011;60000;51.030;7.024;2022-12-13T06:12:26;18.40;;;7.35;;
72127;SDS011;60000;51.030;7.024;2022-12-13T06:14:53;22.90;;;7.63;;
72127;SDS011;60000;51.030;7.024;2022-12-13T06:17:18;21.95;;;7.97;;
72127;SDS011;60000;51.030;7.024;2022-12-13T06:19:44;25.42;;;8.63;;
72127;SDS011;60000;51.030;7.024;2022-12-13T06:22:10;21.60;;;6.85;;
72127;SDS011;60000;51.030;7.024;2022-12-13T06:24:36;21.45;;;7.57;;
72127;SDS011;60000;51.030;7.024;2022-12-13T06:27:01;21.70;;;7.27;;
72127;SDS011;60000;51.030;7.024;2022-12-13T06:29:28;21.37;;;7.13;;
72127;SDS011;60000;51.030;7.024;2022-12-13T06:31:57;25.17;;;7.38;;
72127;SDS011;60000;51.030;7.024;2022-12-13T06:34:23;20.77;;;6.97;;
72127;SDS011;60000;51.030;7.024;2022-12-13T06:36:48;24.40;;;8.20;;
72127;SDS011;60000;51.030;7.024;2022-12-13T06:39:14;22.52;;;8.40;;
72127;SDS011;60000;51.030;7.024;2022-12-13T06:41:39;18.67;;;7.27;;
72127;SDS011;60000;51.030;7.024;2022-12-13T06:44:05;26.10;;;8.37;;
72127;SDS011;60000;51.030;7.024;2022-12-13T06:46:31;23.05;;;8.68;;
72127;SDS011;60000;51.030;7.024;2022-12-13T06:48:57;19.73;;;7.20;;
72127;SDS011;60000;51.030;7.024;2022-12-13T06:51:22;21.02;;;7.25;;
72127;SDS011;60000;51.030;7.024;2022-12-13T06:53:47;21.10;;;8.18;;
72127;SDS011;60000;51.030;7.024;2022-12-13T06:56:13;20.03;;;8.43;;
72127;SDS011;60000;51.030;7.024;2022-12-13T06:58:39;20.00;;;7.53;;
72127;SDS011;60000;51.030;7.024;2022-12-13T07:01:07;21.70;;;7.38;;
72127;SDS011;60000;51.030;7.024;2022-12-13T07:03:36;16.42;;;6.70;;
72127;SDS011;60000;51.030;7.024;2022-12-13T07:06:06;19.30;;;7.43;;
72127;SDS011;60000;51.030;7.024;2022-12-13T07:08:35;18.13;;;6.45;;
72127;SDS011;60000;51.030;7.024;2022-12-13T07:11:01;20.67;;;7.27;;
72127;SDS011;60000;51.030;7.024;2022-12-13T07:13:27;19.25;;;6.68;;
72127;SDS011;60000;51.030;7.024;2022-12-13T07:15:52;18.03;;;6.97;;
72127;SDS011;60000;51.030;7.024;2022-12-13T07:18:17;18.00;;;6.63;;
72127;SDS011;60000;51.030;7.024;2022-12-13T07:20:43;18.03;;;6.47;;
72127;SDS011;60000;51.030;7.024;2022-12-13T07:23:09;17.15;;;5.93;;
72127;SDS011;60000;51.030;7.024;2022-12-13T07:25:35;22.20;;;7.63;;
72127;SDS011;60000;51.030;7.024;2022-12-13T07:28:02;17.15;;;6.50;;
72127;SDS011;60000;51.030;7.024;2022-12-13T07:30:33;20.13;;;6.65;;
72127;SDS011;60000;51.030;7.024;2022-12-13T07:33:02;17.33;;;6.15;;
72127;SDS011;60000;51.030;7.024;2022-12-13T07:35:28;17.13;;;5.60;;
72127;SDS011;60000;51.030;7.024;2022-12-13T07:37:54;21.80;;;7.05;;
72127;SDS011;60000;51.030;7.024;2022-12-13T07:40:20;21.00;;;7.47;;
72127;SDS011;60000;51.030;7.024;2022-12-13T07:42:49;20.63;;;7.83;;
72127;SDS011;60000;51.030;7.024;2022-12-13T07:45:18;20.52;;;7.20;;
72127;SDS011;60000;51.030;7.024;2022-12-13T07:47:44;25.23;;;7.57;;
72127;SDS011;60000;51.030;7.024;2022-12-13T07:50:10;21.30;;;7.20;;
72127;SDS011;60000;51.030;7.024;2022-12-13T07:52:36;19.92;;;6.90;;
72127;SDS011;60000;51.030;7.024;2022-12-13T07:55:01;18.10;;;6.27;;
72127;SDS011;60000;51.030;7.024;2022-12-13T07:57:28;20.63;;;6.88;;
72127;SDS011;60000;51.030;7.024;2022-12-13T07:59:53;16.93;;;6.40;;
72127;SDS011;60000;51.030;7.024;2022-12-13T08:02:19;19.67;;;6.43;;
72127;SDS011;60000;51.030;7.024;2022-12-13T08:04:44;16.70;;;6.67;;
72127;SDS011;60000;51.030;7.024;2022-12-13T08:07:09;17.03;;;6.43;;
72127;SDS011;60000;51.030;7.024;2022-12-13T08:09:35;15.20;;;5.80;;
72127;SDS011;60000;51.030;7.024;2022-12-13T08:12:00;16.85;;;6.40;;
72127;SDS011;60000;51.030;7.024;2022-12-13T08:14:26;15.70;;;6.63;;
72127;SDS011;60000;51.030;7.024;2022-12-13T08:16:51;15.80;;;6.33;;
72127;SDS011;60000;51.030;7.024;2022-12-13T08:19:17;15.97;;;5.87;;
72127;SDS011;60000;51.030;7.024;2022-12-13T08:21:42;15.32;;;5.25;;
72127;SDS011;60000;51.030;7.024;2022-12-13T08:24:08;15.33;;;5.43;;
72127;SDS011;60000;51.030;7.024;2022-12-13T08:26:33;19.30;;;5.90;;
72127;SDS011;60000;51.030;7.024;2022-12-13T08:28:59;19.50;;;7.47;;
72127;SDS011;60000;51.030;7.024;2022-12-13T08:31:24;12.73;;;5.73;;
72127;SDS011;60000;51.030;7.024;2022-12-13T08:33:50;13.17;;;4.90;;
72127;SDS011;60000;51.030;7.024;2022-12-13T08:36:15;16.43;;;5.73;;
72127;SDS011;60000;51.030;7.024;2022-12-13T08:38:45;20.02;;;5.93;;
72127;SDS011;60000;51.030;7.024;2022-12-13T08:41:10;14.68;;;5.85;;
72127;SDS011;60000;51.030;7.024;2022-12-13T08:43:37;14.95;;;5.53;;
72127;SDS011;60000;51.030;7.024;2022-12-13T08:46:02;19.47;;;6.30;;
72127;SDS011;60000;51.030;7.024;2022-12-13T08:48:28;17.65;;;7.20;;
72127;SDS011;60000;51.030;7.024;2022-12-13T08:50:57;17.33;;;6.13;;
72127;SDS011;60000;51.030;7.024;2022-12-13T08:53:24;19.10;;;6.30;;
72127;SDS011;60000;51.030;7.024;2022-12-13T08:55:50;20.75;;;7.40;;
72127;SDS011;60000;51.030;7.024;2022-12-13T08:58:15;18.83;;;6.83;;
72127;SDS011;60000;51.030;7.024;2022-12-13T09:00:41;22.07;;;7.83;;
72127;SDS011;60000;51.030;7.024;2022-12-13T09:03:07;20.30;;;6.45;;
72127;SDS011;60000;51.030;7.024;2022-12-13T09:05:32;21.83;;;8.27;;
72127;SDS011;60000;51.030;7.024;2022-12-13T09:07:58;18.77;;;7.20;;
72127;SDS011;60000;51.030;7.024;2022-12-13T09:10:26;19.05;;;7.28;;
72127;SDS011;60000;51.030;7.024;2022-12-13T09:12:52;20.40;;;7.78;;
72127;SDS011;60000;51.030;7.024;2022-12-13T09:15:18;17.95;;;6.82;;
72127;SDS011;60000;51.030;7.024;2022-12-13T09:17:44;22.70;;;7.43;;
72127;SDS011;60000;51.030;7.024;2022-12-13T09:20:10;20.45;;;7.05;;
72127;SDS011;60000;51.030;7.024;2022-12-13T09:22:35;20.75;;;8.10;;
72127;SDS011;60000;51.030;7.024;2022-12-13T09:25:02;20.75;;;7.47;;
72127;SDS011;60000;51.030;7.024;2022-12-13T09:27:29;23.55;;;8.07;;
72127;SDS011;60000;51.030;7.024;2022-12-13T09:29:55;18.85;;;6.95;;
72127;SDS011;60000;51.030;7.024;2022-12-13T09:32:20;20.17;;;7.90;;
72127;SDS011;60000;51.030;7.024;2022-12-13T09:34:46;18.98;;;7.25;;
72127;SDS011;60000;51.030;7.024;2022-12-13T09:37:11;18.53;;;7.07;;
72127;SDS011;60000;51.030;7.024;2022-12-13T09:39:37;19.83;;;7.45;;
72127;SDS011;60000;51.030;7.024;2022-12-13T09:42:03;24.70;;;7.95;;
72127;SDS011;60000;51.030;7.024;2022-12-13T09:44:42;20.88;;;7.70;;
72127;SDS011;60000;51.030;7.024;2022-12-13T09:47:33;16.67;;;6.28;;
72127;SDS011;60000;51.030;7.024;2022-12-13T09:50:06;18.25;;;6.70;;
72127;SDS011;60000;51.030;7.024;2022-12-13T09:52:37;20.37;;;8.40;;
72127;SDS011;60000;51.030;7.024;2022-12-13T09:55:26;20.27;;;7.32;;
72127;SDS011;60000;51.030;7.024;2022-12-13T09:57:59;21.80;;;7.82;;
72127;SDS011;60000;51.030;7.024;2022-12-13T10:00:32;19.52;;;6.97;;
72127;SDS011;60000;51.030;7.024;2022-12-13T10:02:59;19.13;;;7.20;;
72127;SDS011;60000;51.030;7.024;2022-12-13T10:07:54;18.30;;;7.55;;
72127;SDS011;60000;51.030;7.024;2022-12-13T10:10:23;18.20;;;6.93;;
72127;SDS011;60000;51.030;7.024;2022-12-13T10:12:57;20.20;;;6.97;;
72127;SDS011;60000;51.030;7.024;2022-12-13T10:15:34;20.17;;;7.43;;
72127;SDS011;60000;51.030;7.024;2022-12-13T10:18:02;20.70;;;7.88;;
72127;SDS011;60000;51.030;7.024;2022-12-13T10:20:29;18.33;;;7.30;;
72127;SDS011;60000;51.030;7.024;2022-12-13T10:22:55;19.17;;;7.07;;
72127;SDS011;60000;51.030;7.024;2022-12-13T10:28:10;21.15;;;7.80;;
72127;SDS011;60000;51.030;7.024;2022-12-13T10:30:39;19.43;;;7.37;;
72127;SDS011;60000;51.030;7.024;2022-12-13T10:33:23;17.60;;;7.15;;
72127;SDS011;60000;51.030;7.024;2022-12-13T10:36:15;17.35;;;7.22;;
72127;SDS011;60000;51.030;7.024;2022-12-13T10:38:58;23.42;;;8.07;;
72127;SDS011;60000;51.030;7.024;2022-12-13T10:46:42;17.10;;;7.32;;
72127;SDS011;60000;51.030;7.024;2022-12-13T10:49:20;18.60;;;7.60;;
72127;SDS011;60000;51.030;7.024;2022-12-13T10:51:48;17.25;;;7.20;;
72127;SDS011;60000;51.030;7.024;2022-12-13T10:54:37;18.95;;;7.25;;
72127;SDS011;60000;51.030;7.024;2022-12-13T10:57:02;17.70;;;6.33;;
72127;SDS011;60000;51.030;7.024;2022-12-13T10:59:32;17.13;;;6.38;;
72127;SDS011;60000;51.030;7.024;2022-12-13T11:01:59;15.38;;;6.88;;
72127;SDS011;60000;51.030;7.024;2022-12-13T11:04:45;16.90;;;6.27;;
72127;SDS011;60000;51.030;7.024;2022-12-13T11:07:30;20.20;;;7.10;;
72127;SDS011;60000;51.030;7.024;2022-12-13T11:09:57;17.13;;;6.75;;
72127;SDS011;60000;51.030;7.024;2022-12-13T11:12:39;19.65;;;7.32;;
72127;SDS011;60000;51.030;7.024;2022-12-13T11:15:06;16.60;;;6.72;;
72127;SDS011;60000;51.030;7.024;2022-12-13T11:17:43;16.33;;;6.63;;
72127;SDS011;60000;51.030;7.024;2022-12-13T11:20:16;16.60;;;7.10;;
72127;SDS011;60000;51.030;7.024;2022-12-13T11:22:44;16.75;;;6.50;;
72127;SDS011;60000;51.030;7.024;2022-12-13T11:25:21;15.93;;;7.00;;
72127;SDS011;60000;51.030;7.024;2022-12-13T11:28:01;17.17;;;7.00;;
72127;SDS011;60000;51.030;7.024;2022-12-13T11:36:25;17.45;;;6.53;;
72127;SDS011;60000;51.030;7.024;2022-12-13T11:41:49;17.38;;;6.82;;
72127;SDS011;60000;51.030;7.024;2022-12-13T11:44:42;16.27;;;6.32;;
72127;SDS011;60000;51.030;7.024;2022-12-13T11:47:25;16.65;;;6.00;;
72127;SDS011;60000;51.030;7.024;2022-12-13T11:49:58;15.90;;;6.47;;
72127;SDS011;60000;51.030;7.024;2022-12-13T11:52:27;17.73;;;6.10;;
72127;SDS011;60000;51.030;7.024;2022-12-13T11:55:13;17.02;;;6.85;;
72127;SDS011;60000;51.030;7.024;2022-12-13T11:57:46;17.52;;;6.70;;
72127;SDS011;60000;51.030;7.024;2022-12-13T12:00:29;15.55;;;6.13;;
72127;SDS011;60000;51.030;7.024;2022-12-13T12:03:08;16.98;;;6.20;;
72127;SDS011;60000;51.030;7.024;2022-12-13T12:05:39;16.97;;;5.90;;
72127;SDS011;60000;51.030;7.024;2022-12-13T12:08:11;19.40;;;6.80;;
72127;SDS011;60000;51.030;7.024;2022-12-13T12:10:43;16.77;;;6.57;;
72127;SDS011;60000;51.030;7.024;2022-12-13T12:13:20;16.02;;;6.32;;
72127;SDS011;60000;51.030;7.024;2022-12-13T12:18:48;13.90;;;5.40;;
72127;SDS011;60000;51.030;7.024;2022-12-13T12:26:15;13.85;;;5.63;;
72127;SDS011;60000;51.030;7.024;2022-12-13T12:28:48;14.00;;;5.20;;
72127;SDS011;60000;51.030;7.024;2022-12-13T12:34:59;12.52;;;5.07;;
72127;SDS011;60000;51.030;7.024;2022-12-13T12:46:16;12.87;;;5.43;;
72127;SDS011;60000;51.030;7.024;2022-12-13T12:49:16;14.38;;;5.25;;
72127;SDS011;60000;51.030;7.024;2022-12-13T13:03:24;11.50;;;4.90;;
72127;SDS011;60000;51.030;7.024;2022-12-13T13:08:30;12.55;;;4.20;;
72127;SDS011;60000;51.030;7.024;2022-12-13T13:11:06;12.48;;;4.63;;
72127;SDS011;60000;51.030;7.024;2022-12-13T13:13:42;11.83;;;4.87;;
72127;SDS011;60000;51.030;7.024;2022-12-13T13:18:51;10.65;;;4.05;;
72127;SDS011;60000;51.030;7.024;2022-12-13T13:23:46;12.67;;;5.03;;
72127;SDS011;60000;51.030;7.024;2022-12-13T13:26:12;12.03;;;4.73;;
72127;SDS011;60000;51.030;7.024;2022-12-13T13:29:03;11.20;;;4.55;;
72127;SDS011;60000;51.030;7.024;2022-12-13T13:34:43;12.27;;;4.05;;
72127;SDS011;60000;51.030;7.024;2022-12-13T13:37:25;10.67;;;4.00;;
72127;SDS011;60000;51.030;7.024;2022-12-13T13:42:25;12.82;;;4.55;;
72127;SDS011;60000;51.030;7.024;2022-12-13T14:20:57;15.55;;;4.63;;
72127;SDS011;60000;51.030;7.024;2022-12-13T14:26:32;15.00;;;5.35;;
72127;SDS011;60000;51.030;7.024;2022-12-13T14:29:25;12.63;;;4.70;;
72127;SDS011;60000;51.030;7.024;2022-12-13T14:31:53;12.40;;;4.35;;
72127;SDS011;60000;51.030;7.024;2022-12-13T14:34:23;10.93;;;3.95;;
72127;SDS011;60000;51.030;7.024;2022-12-13T14:37:01;11.10;;;4.07;;
72127;SDS011;60000;51.030;7.024;2022-12-13T14:39:28;14.60;;;4.37;;
72127;SDS011;60000;51.030;7.024;2022-12-13T14:41:56;11.77;;;4.57;;
72127;SDS011;60000;51.030;7.024;2022-12-13T14:46:51;11.68;;;4.38;;
72127;SDS011;60000;51.030;7.024;2022-12-13T14:49:28;11.65;;;3.92;;
72127;SDS011;60000;51.030;7.024;2022-12-13T14:51:56;11.50;;;4.40;;
72127;SDS011;60000;51.030;7.024;2022-12-13T14:54:28;10.80;;;4.18;;
72127;SDS011;60000;51.030;7.024;2022-12-13T14:56:59;10.27;;;4.30;;
72127;SDS011;60000;51.030;7.024;2022-12-13T14:59:26;11.75;;;4.40;;
72127;SDS011;60000;51.030;7.024;2022-12-13T15:01:56;13.07;;;4.50;;
72127;SDS011;60000;51.030;7.024;2022-12-13T15:04:26;11.70;;;4.20;;
72127;SDS011;60000;51.030;7.024;2022-12-13T15:09:55;11.57;;;4.68;;
72127;SDS011;60000;51.030;7.024;2022-12-13T15:12:23;12.70;;;4.40;;
72127;SDS011;60000;51.030;7.024;2022-12-13T15:14:52;9.93;;;3.97;;
72127;SDS011;60000;51.030;7.024;2022-12-13T15:19:52;11.65;;;3.88;;
72127;SDS011;60000;51.030;7.024;2022-12-13T15:22:17;10.63;;;4.00;;
72127;SDS011;60000;51.030;7.024;2022-12-13T15:24:43;10.67;;;3.80;;
72127;SDS011;60000;51.030;7.024;2022-12-13T15:27:15;12.97;;;4.40;;
72127;SDS011;60000;51.030;7.024;2022-12-13T15:29:43;9.90;;;4.05;;
72127;SDS011;60000;51.030;7.024;2022-12-13T15:32:11;10.82;;;4.30;;
72127;SDS011;60000;51.030;7.024;2022-12-13T15:34:40;11.90;;;4.50;;
72127;SDS011;60000;51.030;7.024;2022-12-13T15:39:39;11.87;;;4.03;;
72127;SDS011;60000;51.030;7.024;2022-12-13T15:42:16;12.48;;;4.43;;
72127;SDS011;60000;51.030;7.024;2022-12-13T15:44:49;9.10;;;3.80;;
72127;SDS011;60000;51.030;7.024;2022-12-13T15:47:18;12.30;;;3.97;;
72127;SDS011;60000;51.030;7.024;2022-12-13T15:49:55;12.05;;;3.75;;
72127;SDS011;60000;51.030;7.024;2022-12-13T15:54:56;10.40;;;4.15;;
72127;SDS011;60000;51.030;7.024;2022-12-13T15:57:49;10.52;;;4.70;;
72127;SDS011;60000;51.030;7.024;2022-12-13T16:05:22;13.63;;;5.37;;
72127;SDS011;60000;51.030;7.024;2022-12-13T16:07:51;15.93;;;6.32;;
72127;SDS011;60000;51.030;7.024;2022-12-13T16:10:17;25.55;;;11.13;;
72127;SDS011;60000;51.030;7.024;2022-12-13T16:12:47;26.92;;;10.68;;
72127;SDS011;60000;51.030;7.024;2022-12-13T16:17:51;21.70;;;8.70;;
72127;SDS011;60000;51.030;7.024;2022-12-13T16:20:29;19.23;;;7.65;;
72127;SDS011;60000;51.030;7.024;2022-12-13T16:22:54;21.10;;;8.87;;
72127;SDS011;60000;51.030;7.024;2022-12-13T16:25:20;17.87;;;7.13;;
72127;SDS011;60000;51.030;7.024;2022-12-13T16:27:45;15.95;;;6.43;;
72127;SDS011;60000;51.030;7.024;2022-12-13T16:30:12;27.73;;;10.87;;
72127;SDS011;60000;51.030;7.024;2022-12-13T16:32:38;19.70;;;7.90;;
72127;SDS011;60000;51.030;7.024;2022-12-13T16:35:03;17.13;;;6.70;;
72127;SDS011;60000;51.030;7.024;2022-12-13T16:37:29;16.35;;;6.65;;
72127;SDS011;60000;51.030;7.024;2022-12-13T16:39:55;16.13;;;6.07;;
72127;SDS011;60000;51.030;7.024;2022-12-13T16:42:21;16.40;;;6.45;;
72127;SDS011;60000;51.030;7.024;2022-12-13T16:44:47;23.08;;;10.30;;
72127;SDS011;60000;51.030;7.024;2022-12-13T16:47:13;22.20;;;9.60;;
72127;SDS011;60000;51.030;7.024;2022-12-13T16:49:38;31.67;;;12.70;;
72127;SDS011;60000;51.030;7.024;2022-12-13T16:52:04;22.85;;;10.50;;
72127;SDS011;60000;51.030;7.024;2022-12-13T16:54:31;16.00;;;7.25;;
72127;SDS011;60000;51.030;7.024;2022-12-13T16:56:57;15.75;;;7.45;;
72127;SDS011;60000;51.030;7.024;2022-12-13T16:59:23;15.87;;;7.03;;
72127;SDS011;60000;51.030;7.024;2022-12-13T17:01:50;16.17;;;7.03;;
72127;SDS011;60000;51.030;7.024;2022-12-13T17:04:17;16.90;;;7.53;;
72127;SDS011;60000;51.030;7.024;2022-12-13T17:06:47;20.23;;;9.85;;
72127;SDS011;60000;51.030;7.024;2022-12-13T17:09:13;17.67;;;8.30;;